sensor_id;sensor_type;location;lat;lon;timestamp;P1;durP1;ratioP1;P2;durP2;ratioP2
11111;SDS011;5609;49.466;8.468;2022-11-20T00:00:39;12.67;;;11.37;;
11111;SDS011;5609;49.466;8.468;2022-11-20T00:03:06;15.53;;;11.67;;
11111;SDS011;5609;49.466;8.468;2022-11-20T00:05:33;11.53;;;10.33;;
11111;SDS011;5609;49.466;8.468;2022-11-20T00:08:00;13.53;;;12.13;;
11111;SDS011;5609;49.466;8.468;2022-11-20T00:10:27;10.97;;;9.97;;
11111;SDS011;5609;49.466;8.468;2022-11-20T00:12:54;11.70;;;10.60;;
11111;SDS011;5609;49.466;8.468;2022-11-20T00:15:20;12.47;;;10.47;;
11111;SDS011;5609;49.466;8.468;2022-11-20T00:17:48;11.47;;;10.27;;
11111;SDS011;5609;49.466;8.468;2022-11-20T00:20:15;11.30;;;10.13;;
11111;SDS011;5609;49.466;8.468;2022-11-20T00:22:42;11.93;;;10.70;;
11111;SDS011;5609;49.466;8.468;2022-11-20T00:25:09;11.03;;;9.90;;
11111;SDS011;5609;49.466;8.468;2022-11-20T00:27:36;10.80;;;9.73;;
11111;SDS011;5609;49.466;8.468;2022-11-20T00:30:03;12.77;;;9.77;;
11111;SDS011;5609;49.466;8.468;2022-11-20T00:32:30;11.00;;;9.93;;
11111;SDS011;5609;49.466;8.468;2022-11-20T00:34:59;10.03;;;9.10;;
11111;SDS011;5609;49.466;8.468;2022-11-20T00:37:26;10.20;;;9.20;;
11111;SDS011;5609;49.466;8.468;2022-11-20T00:39:53;10.47;;;9.43;;
11111;SDS011;5609;49.466;8.468;2022-11-20T00:42:19;9.80;;;8.80;;
11111;SDS011;5609;49.466;8.468;2022-11-20T00:44:46;11.23;;;9.70;;
11111;SDS011;5609;49.466;8.468;2022-11-20T00:47:13;9.47;;;8.57;;
11111;SDS011;5609;49.466;8.468;2022-11-20T00:49:40;10.70;;;8.50;;
11111;SDS011;5609;49.466;8.468;2022-11-20T00:52:08;11.13;;;10.13;;
11111;SDS011;5609;49.466;8.468;2022-11-20T00:54:35;9.67;;;8.63;;
11111;SDS011;5609;49.466;8.468;2022-11-20T00:57:01;10.10;;;9.10;;
11111;SDS011;5609;49.466;8.468;2022-11-20T00:59:28;9.57;;;8.57;;
11111;SDS011;5609;49.466;8.468;2022-11-20T01:01:55;10.17;;;9.10;;
11111;SDS011;5609;49.466;8.468;2022-11-20T01:04:22;10.93;;;9.43;;
11111;SDS011;5609;49.466;8.468;2022-11-20T01:06:48;10.90;;;9.87;;
11111;SDS011;5609;49.466;8.468;2022-11-20T01:09:17;10.77;;;9.37;;
11111;SDS011;5609;49.466;8.468;2022-11-20T01:11:44;11.80;;;10.53;;
11111;SDS011;5609;49.466;8.468;2022-11-20T01:14:12;11.07;;;9.30;;
11111;SDS011;5609;49.466;8.468;2022-11-20T01:16:40;9.67;;;8.63;;
11111;SDS011;5609;49.466;8.468;2022-11-20T01:19:09;9.83;;;8.93;;
11111;SDS011;5609;49.466;8.468;2022-11-20T01:21:39;11.57;;;10.40;;
11111;SDS011;5609;49.466;8.468;2022-11-20T01:24:10;10.80;;;9.70;;
11111;SDS011;5609;49.466;8.468;2022-11-20T01:26:40;10.50;;;9.50;;
11111;SDS011;5609;49.466;8.468;2022-11-20T01:29:09;10.47;;;9.33;;
11111;SDS011;5609;49.466;8.468;2022-11-20T01:31:40;10.60;;;9.57;;
11111;SDS011;5609;49.466;8.468;2022-11-20T01:34:09;10.40;;;9.30;;
11111;SDS011;5609;49.466;8.468;2022-11-20T01:36:37;10.20;;;9.10;;
11111;SDS011;5609;49.466;8.468;2022-11-20T01:39:07;10.20;;;9.13;;
11111;SDS011;5609;49.466;8.468;2022-11-20T01:41:36;10.87;;;9.77;;
11111;SDS011;5609;49.466;8.468;2022-11-20T01:47:12;9.83;;;8.67;;
11111;SDS011;5609;49.466;8.468;2022-11-20T01:49:42;10.77;;;9.77;;
11111;SDS011;5609;49.466;8.468;2022-11-20T01:52:13;9.73;;;8.73;;
11111;SDS011;5609;49.466;8.468;2022-11-20T01:54:43;9.10;;;8.20;;
11111;SDS011;5609;49.466;8.468;2022-11-20T01:57:14;9.07;;;7.87;;
11111;SDS011;5609;49.466;8.468;2022-11-20T01:59:47;9.83;;;8.73;;
11111;SDS011;5609;49.466;8.468;2022-11-20T02:02:19;9.50;;;8.60;;
11111;SDS011;5609;49.466;8.468;2022-11-20T02:04:46;9.37;;;8.47;;
11111;SDS011;5609;49.466;8.468;2022-11-20T02:07:15;10.27;;;9.27;;
11111;SDS011;5609;49.466;8.468;2022-11-20T02:09:42;10.77;;;8.27;;
11111;SDS011;5609;49.466;8.468;2022-11-20T02:12:09;8.73;;;7.83;;
11111;SDS011;5609;49.466;8.468;2022-11-20T02:14:57;9.77;;;8.57;;
11111;SDS011;5609;49.466;8.468;2022-11-20T02:17:23;9.50;;;8.00;;
11111;SDS011;5609;49.466;8.468;2022-11-20T02:19:51;9.80;;;8.90;;
11111;SDS011;5609;49.466;8.468;2022-11-20T02:22:19;9.60;;;8.70;;
11111;SDS011;5609;49.466;8.468;2022-11-20T02:24:53;10.20;;;9.20;;
11111;SDS011;5609;49.466;8.468;2022-11-20T02:27:20;10.40;;;9.40;;
11111;SDS011;5609;49.466;8.468;2022-11-20T02:29:48;9.10;;;8.20;;
11111;SDS011;5609;49.466;8.468;2022-11-20T02:32:17;10.60;;;8.73;;
11111;SDS011;5609;49.466;8.468;2022-11-20T02:34:45;9.90;;;8.90;;
11111;SDS011;5609;49.466;8.468;2022-11-20T02:37:12;10.17;;;9.07;;
11111;SDS011;5609;49.466;8.468;2022-11-20T02:39:40;9.00;;;8.10;;
11111;SDS011;5609;49.466;8.468;2022-11-20T02:42:09;9.67;;;8.67;;
11111;SDS011;5609;49.466;8.468;2022-11-20T02:44:35;9.80;;;8.70;;
11111;SDS011;5609;49.466;8.468;2022-11-20T02:47:02;9.70;;;8.70;;
11111;SDS011;5609;49.466;8.468;2022-11-20T02:49:29;11.53;;;9.07;;
11111;SDS011;5609;49.466;8.468;2022-11-20T02:51:56;9.40;;;8.20;;
11111;SDS011;5609;49.466;8.468;2022-11-20T02:54:23;13.33;;;9.00;;
11111;SDS011;5609;49.466;8.468;2022-11-20T02:56:50;10.87;;;8.50;;
11111;SDS011;5609;49.466;8.468;2022-11-20T02:59:18;12.63;;;11.33;;
11111;SDS011;5609;49.466;8.468;2022-11-20T03:01:45;11.33;;;9.93;;
11111;SDS011;5609;49.466;8.468;2022-11-20T03:04:12;9.50;;;8.50;;
11111;SDS011;5609;49.466;8.468;2022-11-20T03:06:39;9.57;;;8.30;;
11111;SDS011;5609;49.466;8.468;2022-11-20T03:09:05;8.77;;;7.87;;
11111;SDS011;5609;49.466;8.468;2022-11-20T03:11:32;9.13;;;8.23;;
11111;SDS011;5609;49.466;8.468;2022-11-20T03:14:01;11.00;;;10.00;;
11111;SDS011;5609;49.466;8.468;2022-11-20T03:16:30;10.50;;;9.43;;
11111;SDS011;5609;49.466;8.468;2022-11-20T03:18:57;12.07;;;9.03;;
11111;SDS011;5609;49.466;8.468;2022-11-20T03:21:24;10.57;;;9.47;;
11111;SDS011;5609;49.466;8.468;2022-11-20T03:23:52;9.80;;;8.80;;
11111;SDS011;5609;49.466;8.468;2022-11-20T03:26:20;9.00;;;8.10;;
11111;SDS011;5609;49.466;8.468;2022-11-20T03:28:49;9.83;;;8.77;;
11111;SDS011;5609;49.466;8.468;2022-11-20T03:31:17;8.23;;;7.47;;
11111;SDS011;5609;49.466;8.468;2022-11-20T03:33:47;8.90;;;8.00;;
11111;SDS011;5609;49.466;8.468;2022-11-20T03:36:15;10.97;;;9.87;;
11111;SDS011;5609;49.466;8.468;2022-11-20T03:38:43;10.30;;;8.47;;
11111;SDS011;5609;49.466;8.468;2022-11-20T03:41:11;10.47;;;9.37;;
11111;SDS011;5609;49.466;8.468;2022-11-20T03:43:39;11.53;;;10.37;;
11111;SDS011;5609;49.466;8.468;2022-11-20T03:46:07;11.73;;;10.50;;
11111;SDS011;5609;49.466;8.468;2022-11-20T03:48:34;10.83;;;9.30;;
11111;SDS011;5609;49.466;8.468;2022-11-20T03:51:08;11.10;;;9.43;;
11111;SDS011;5609;49.466;8.468;2022-11-20T03:53:36;11.70;;;9.33;;
11111;SDS011;5609;49.466;8.468;2022-11-20T03:56:04;11.73;;;10.53;;
11111;SDS011;5609;49.466;8.468;2022-11-20T03:58:32;9.47;;;8.57;;
11111;SDS011;5609;49.466;8.468;2022-11-20T04:01:03;9.93;;;8.93;;
11111;SDS011;5609;49.466;8.468;2022-11-20T04:03:31;10.53;;;8.50;;
11111;SDS011;5609;49.466;8.468;2022-11-20T04:06:00;10.60;;;8.50;;
11111;SDS011;5609;49.466;8.468;2022-11-20T04:08:30;9.30;;;8.30;;
11111;SDS011;5609;49.466;8.468;2022-11-20T04:10:57;9.60;;;8.60;;
11111;SDS011;5609;49.466;8.468;2022-11-20T04:13:34;9.07;;;8.13;;
11111;SDS011;5609;49.466;8.468;2022-11-20T04:16:01;11.83;;;10.63;;
11111;SDS011;5609;49.466;8.468;2022-11-20T04:18:28;11.93;;;10.37;;
11111;SDS011;5609;49.466;8.468;2022-11-20T04:20:56;10.33;;;9.23;;
11111;SDS011;5609;49.466;8.468;2022-11-20T04:23:23;11.03;;;9.97;;
11111;SDS011;5609;49.466;8.468;2022-11-20T04:25:51;10.43;;;9.33;;
11111;SDS011;5609;49.466;8.468;2022-11-20T04:28:18;9.77;;;8.80;;
11111;SDS011;5609;49.466;8.468;2022-11-20T04:30:45;10.47;;;9.37;;
11111;SDS011;5609;49.466;8.468;2022-11-20T04:33:12;8.80;;;7.90;;
11111;SDS011;5609;49.466;8.468;2022-11-20T04:35:39;10.43;;;8.50;;
11111;SDS011;5609;49.466;8.468;2022-11-20T04:38:06;8.87;;;7.97;;
11111;SDS011;5609;49.466;8.468;2022-11-20T04:40:33;10.33;;;7.33;;
11111;SDS011;5609;49.466;8.468;2022-11-20T04:43:01;8.73;;;7.83;;
11111;SDS011;5609;49.466;8.468;2022-11-20T04:45:27;8.80;;;7.90;;
11111;SDS011;5609;49.466;8.468;2022-11-20T04:47:54;9.77;;;8.50;;
11111;SDS011;5609;49.466;8.468;2022-11-20T04:50:21;8.67;;;7.77;;
11111;SDS011;5609;49.466;8.468;2022-11-20T04:52:48;8.60;;;7.43;;
11111;SDS011;5609;49.466;8.468;2022-11-20T04:55:14;8.90;;;8.00;;
11111;SDS011;5609;49.466;8.468;2022-11-20T04:57:41;9.73;;;8.73;;
11111;SDS011;5609;49.466;8.468;2022-11-20T05:00:10;10.23;;;8.57;;
11111;SDS011;5609;49.466;8.468;2022-11-20T05:02:38;9.13;;;7.60;;
11111;SDS011;5609;49.466;8.468;2022-11-20T05:05:05;9.10;;;8.20;;
11111;SDS011;5609;49.466;8.468;2022-11-20T05:07:32;9.53;;;7.97;;
11111;SDS011;5609;49.466;8.468;2022-11-20T05:09:58;8.93;;;8.07;;
11111;SDS011;5609;49.466;8.468;2022-11-20T05:12:25;9.10;;;8.20;;
11111;SDS011;5609;49.466;8.468;2022-11-20T05:14:53;10.47;;;8.17;;
11111;SDS011;5609;49.466;8.468;2022-11-20T05:17:21;9.13;;;8.23;;
11111;SDS011;5609;49.466;8.468;2022-11-20T05:19:48;8.87;;;8.00;;
11111;SDS011;5609;49.466;8.468;2022-11-20T05:22:15;10.10;;;9.10;;
11111;SDS011;5609;49.466;8.468;2022-11-20T05:24:42;12.23;;;10.97;;
11111;SDS011;5609;49.466;8.468;2022-11-20T05:27:09;12.07;;;10.87;;
11111;SDS011;5609;49.466;8.468;2022-11-20T05:29:35;12.00;;;10.17;;
11111;SDS011;5609;49.466;8.468;2022-11-20T05:32:02;11.03;;;9.47;;
11111;SDS011;5609;49.466;8.468;2022-11-20T05:34:32;9.20;;;8.30;;
11111;SDS011;5609;49.466;8.468;2022-11-20T05:36:59;9.43;;;8.53;;
11111;SDS011;5609;49.466;8.468;2022-11-20T05:39:25;9.87;;;8.87;;
11111;SDS011;5609;49.466;8.468;2022-11-20T05:41:52;8.90;;;8.00;;
11111;SDS011;5609;49.466;8.468;2022-11-20T05:44:33;9.07;;;8.13;;
11111;SDS011;5609;49.466;8.468;2022-11-20T05:47:00;8.80;;;7.90;;
11111;SDS011;5609;49.466;8.468;2022-11-20T05:49:26;10.17;;;8.30;;
11111;SDS011;5609;49.466;8.468;2022-11-20T05:51:55;9.10;;;8.20;;
11111;SDS011;5609;49.466;8.468;2022-11-20T05:54:21;9.80;;;8.17;;
11111;SDS011;5609;49.466;8.468;2022-11-20T05:56:48;9.10;;;8.10;;
11111;SDS011;5609;49.466;8.468;2022-11-20T05:59:15;9.00;;;8.10;;
11111;SDS011;5609;49.466;8.468;2022-11-20T06:01:42;8.23;;;6.97;;
11111;SDS011;5609;49.466;8.468;2022-11-20T06:04:08;9.13;;;8.23;;
11111;SDS011;5609;49.466;8.468;2022-11-20T06:06:35;9.67;;;8.67;;
11111;SDS011;5609;49.466;8.468;2022-11-20T06:09:03;10.30;;;9.07;;
11111;SDS011;5609;49.466;8.468;2022-11-20T06:11:30;10.70;;;9.60;;
11111;SDS011;5609;49.466;8.468;2022-11-20T06:13:57;11.63;;;10.40;;
11111;SDS011;5609;49.466;8.468;2022-11-20T06:16:24;10.83;;;9.33;;
11111;SDS011;5609;49.466;8.468;2022-11-20T06:18:50;9.37;;;7.80;;
11111;SDS011;5609;49.466;8.468;2022-11-20T06:21:18;10.40;;;8.07;;
11111;SDS011;5609;49.466;8.468;2022-11-20T06:23:46;11.43;;;10.23;;
11111;SDS011;5609;49.466;8.468;2022-11-20T06:26:15;11.67;;;9.60;;
11111;SDS011;5609;49.466;8.468;2022-11-20T06:28:43;10.23;;;8.40;;
11111;SDS011;5609;49.466;8.468;2022-11-20T06:31:11;10.63;;;9.53;;
11111;SDS011;5609;49.466;8.468;2022-11-20T06:33:39;9.97;;;8.70;;
11111;SDS011;5609;49.466;8.468;2022-11-20T06:36:06;9.90;;;8.90;;
11111;SDS011;5609;49.466;8.468;2022-11-20T06:38:33;8.27;;;7.47;;
11111;SDS011;5609;49.466;8.468;2022-11-20T06:41:00;8.27;;;7.47;;
11111;SDS011;5609;49.466;8.468;2022-11-20T06:43:28;10.07;;;8.80;;
11111;SDS011;5609;49.466;8.468;2022-11-20T06:45:56;8.57;;;7.67;;
11111;SDS011;5609;49.466;8.468;2022-11-20T06:48:25;10.43;;;9.37;;
11111;SDS011;5609;49.466;8.468;2022-11-20T06:50:53;9.47;;;7.87;;
11111;SDS011;5609;49.466;8.468;2022-11-20T06:53:20;8.93;;;7.73;;
11111;SDS011;5609;49.466;8.468;2022-11-20T06:55:48;7.67;;;6.17;;
11111;SDS011;5609;49.466;8.468;2022-11-20T06:58:15;9.13;;;7.27;;
11111;SDS011;5609;49.466;8.468;2022-11-20T07:00:44;7.80;;;7.00;;
11111;SDS011;5609;49.466;8.468;2022-11-20T07:03:11;9.73;;;7.67;;
11111;SDS011;5609;49.466;8.468;2022-11-20T07:05:38;9.73;;;8.57;;
11111;SDS011;5609;49.466;8.468;2022-11-20T07:08:05;12.37;;;8.70;;
11111;SDS011;5609;49.466;8.468;2022-11-20T07:10:32;8.80;;;7.90;;
11111;SDS011;5609;49.466;8.468;2022-11-20T07:12:59;9.33;;;8.37;;
11111;SDS011;5609;49.466;8.468;2022-11-20T07:15:28;12.73;;;11.43;;
11111;SDS011;5609;49.466;8.468;2022-11-20T07:17:57;14.07;;;12.67;;
11111;SDS011;5609;49.466;8.468;2022-11-20T07:20:25;13.33;;;11.93;;
11111;SDS011;5609;49.466;8.468;2022-11-20T07:22:53;14.33;;;12.73;;
11111;SDS011;5609;49.466;8.468;2022-11-20T07:25:21;16.07;;;13.33;;
11111;SDS011;5609;49.466;8.468;2022-11-20T07:27:48;14.07;;;12.67;;
11111;SDS011;5609;49.466;8.468;2022-11-20T07:30:15;14.27;;;12.77;;
11111;SDS011;5609;49.466;8.468;2022-11-20T07:32:42;15.63;;;12.90;;
11111;SDS011;5609;49.466;8.468;2022-11-20T07:35:13;15.00;;;13.43;;
11111;SDS011;5609;49.466;8.468;2022-11-20T07:37:40;16.03;;;13.37;;
11111;SDS011;5609;49.466;8.468;2022-11-20T07:40:07;15.83;;;13.50;;
11111;SDS011;5609;49.466;8.468;2022-11-20T07:42:35;18.43;;;13.60;;
11111;SDS011;5609;49.466;8.468;2022-11-20T07:45:01;18.87;;;14.97;;
11111;SDS011;5609;49.466;8.468;2022-11-20T07:47:29;18.90;;;14.20;;
11111;SDS011;5609;49.466;8.468;2022-11-20T07:50:01;16.97;;;14.93;;
11111;SDS011;5609;49.466;8.468;2022-11-20T07:52:29;17.53;;;14.70;;
11111;SDS011;5609;49.466;8.468;2022-11-20T07:54:56;19.73;;;14.20;;
11111;SDS011;5609;49.466;8.468;2022-11-20T07:57:23;18.10;;;14.50;;
11111;SDS011;5609;49.466;8.468;2022-11-20T07:59:50;17.83;;;14.37;;
11111;SDS011;5609;49.466;8.468;2022-11-20T08:02:16;17.97;;;14.27;;
11111;SDS011;5609;49.466;8.468;2022-11-20T08:04:43;17.30;;;13.67;;
11111;SDS011;5609;49.466;8.468;2022-11-20T08:07:10;18.50;;;14.20;;
11111;SDS011;5609;49.466;8.468;2022-11-20T08:09:38;15.90;;;14.03;;
11111;SDS011;5609;49.466;8.468;2022-11-20T08:12:05;16.03;;;13.87;;
11111;SDS011;5609;49.466;8.468;2022-11-20T08:14:50;17.63;;;14.77;;
11111;SDS011;5609;49.466;8.468;2022-11-20T08:17:17;19.97;;;14.47;;
11111;SDS011;5609;49.466;8.468;2022-11-20T08:19:43;16.57;;;13.60;;
11111;SDS011;5609;49.466;8.468;2022-11-20T08:22:10;18.97;;;14.10;;
11111;SDS011;5609;49.466;8.468;2022-11-20T08:24:38;18.30;;;14.20;;
11111;SDS011;5609;49.466;8.468;2022-11-20T08:27:05;17.53;;;14.13;;
11111;SDS011;5609;49.466;8.468;2022-11-20T08:29:32;18.77;;;14.83;;
11111;SDS011;5609;49.466;8.468;2022-11-20T08:31:58;18.23;;;15.67;;
11111;SDS011;5609;49.466;8.468;2022-11-20T08:34:25;16.87;;;14.23;;
11111;SDS011;5609;49.466;8.468;2022-11-20T08:36:52;16.23;;;13.80;;
11111;SDS011;5609;49.466;8.468;2022-11-20T08:39:19;15.90;;;13.50;;
11111;SDS011;5609;49.466;8.468;2022-11-20T08:41:47;15.07;;;13.30;;
11111;SDS011;5609;49.466;8.468;2022-11-20T08:44:13;14.47;;;12.70;;
11111;SDS011;5609;49.466;8.468;2022-11-20T08:46:40;14.03;;;12.53;;
11111;SDS011;5609;49.466;8.468;2022-11-20T08:49:10;13.90;;;12.40;;
11111;SDS011;5609;49.466;8.468;2022-11-20T08:51:38;15.03;;;13.43;;
11111;SDS011;5609;49.466;8.468;2022-11-20T08:54:05;15.37;;;13.17;;
11111;SDS011;5609;49.466;8.468;2022-11-20T08:56:33;15.07;;;13.03;;
11111;SDS011;5609;49.466;8.468;2022-11-20T08:59:01;16.27;;;13.47;;
11111;SDS011;5609;49.466;8.468;2022-11-20T09:01:28;14.50;;;12.77;;
11111;SDS011;5609;49.466;8.468;2022-11-20T09:03:55;15.73;;;13.37;;
11111;SDS011;5609;49.466;8.468;2022-11-20T09:06:22;15.70;;;13.97;;
11111;SDS011;5609;49.466;8.468;2022-11-20T09:08:51;15.93;;;13.77;;
11111;SDS011;5609;49.466;8.468;2022-11-20T09:11:18;14.60;;;13.00;;
11111;SDS011;5609;49.466;8.468;2022-11-20T09:13:45;16.43;;;14.37;;
11111;SDS011;5609;49.466;8.468;2022-11-20T09:16:13;16.20;;;13.27;;
11111;SDS011;5609;49.466;8.468;2022-11-20T09:18:40;16.17;;;13.90;;
11111;SDS011;5609;49.466;8.468;2022-11-20T09:21:08;16.87;;;14.23;;
11111;SDS011;5609;49.466;8.468;2022-11-20T09:23:36;16.93;;;14.00;;
11111;SDS011;5609;49.466;8.468;2022-11-20T09:26:04;16.57;;;13.87;;
11111;SDS011;5609;49.466;8.468;2022-11-20T09:28:32;15.03;;;13.17;;
11111;SDS011;5609;49.466;8.468;2022-11-20T09:30:59;17.67;;;15.23;;
11111;SDS011;5609;49.466;8.468;2022-11-20T09:33:27;20.83;;;17.03;;
11111;SDS011;5609;49.466;8.468;2022-11-20T09:35:54;20.53;;;17.43;;
11111;SDS011;5609;49.466;8.468;2022-11-20T09:38:21;27.10;;;21.90;;
11111;SDS011;5609;49.466;8.468;2022-11-20T09:40:50;22.03;;;18.07;;
11111;SDS011;5609;49.466;8.468;2022-11-20T09:43:24;21.23;;;17.73;;
11111;SDS011;5609;49.466;8.468;2022-11-20T09:46:01;21.73;;;17.27;;
11111;SDS011;5609;49.466;8.468;2022-11-20T09:48:41;21.17;;;16.80;;
11111;SDS011;5609;49.466;8.468;2022-11-20T09:51:16;19.70;;;16.50;;
11111;SDS011;5609;49.466;8.468;2022-11-20T09:53:56;21.13;;;17.10;;
11111;SDS011;5609;49.466;8.468;2022-11-20T09:56:33;20.30;;;16.80;;
11111;SDS011;5609;49.466;8.468;2022-11-20T09:59:04;21.13;;;17.83;;
11111;SDS011;5609;49.466;8.468;2022-11-20T10:01:36;25.50;;;19.40;;
11111;SDS011;5609;49.466;8.468;2022-11-20T10:04:09;22.63;;;18.07;;
11111;SDS011;5609;49.466;8.468;2022-11-20T10:06:41;22.00;;;17.37;;
11111;SDS011;5609;49.466;8.468;2022-11-20T10:09:15;23.30;;;18.43;;
11111;SDS011;5609;49.466;8.468;2022-11-20T10:11:48;20.90;;;17.10;;
11111;SDS011;5609;49.466;8.468;2022-11-20T10:14:26;21.07;;;16.70;;
11111;SDS011;5609;49.466;8.468;2022-11-20T10:17:03;27.73;;;21.20;;
11111;SDS011;5609;49.466;8.468;2022-11-20T10:19:47;29.63;;;20.90;;
11111;SDS011;5609;49.466;8.468;2022-11-20T10:22:27;28.00;;;21.20;;
11111;SDS011;5609;49.466;8.468;2022-11-20T10:25:08;28.53;;;20.83;;
11111;SDS011;5609;49.466;8.468;2022-11-20T10:27:43;27.00;;;21.17;;
11111;SDS011;5609;49.466;8.468;2022-11-20T10:30:22;35.20;;;23.70;;
11111;SDS011;5609;49.466;8.468;2022-11-20T10:32:51;31.10;;;22.97;;
11111;SDS011;5609;49.466;8.468;2022-11-20T10:35:26;44.57;;;33.00;;
11111;SDS011;5609;49.466;8.468;2022-11-20T10:37:59;59.23;;;40.40;;
11111;SDS011;5609;49.466;8.468;2022-11-20T10:40:37;32.80;;;22.87;;
11111;SDS011;5609;49.466;8.468;2022-11-20T10:43:08;42.03;;;27.70;;
11111;SDS011;5609;49.466;8.468;2022-11-20T10:45:52;31.73;;;22.57;;
11111;SDS011;5609;49.466;8.468;2022-11-20T10:48:24;30.63;;;22.23;;
11111;SDS011;5609;49.466;8.468;2022-11-20T10:50:59;32.57;;;23.00;;
11111;SDS011;5609;49.466;8.468;2022-11-20T10:53:49;31.60;;;23.00;;
11111;SDS011;5609;49.466;8.468;2022-11-20T10:56:22;33.77;;;25.30;;
11111;SDS011;5609;49.466;8.468;2022-11-20T10:59:02;34.53;;;24.40;;
11111;SDS011;5609;49.466;8.468;2022-11-20T11:01:50;32.20;;;23.73;;
11111;SDS011;5609;49.466;8.468;2022-11-20T11:04:22;33.17;;;24.53;;
11111;SDS011;5609;49.466;8.468;2022-11-20T11:07:00;31.70;;;23.43;;
11111;SDS011;5609;49.466;8.468;2022-11-20T11:09:37;31.73;;;23.07;;
11111;SDS011;5609;49.466;8.468;2022-11-20T11:12:09;30.47;;;22.93;;
11111;SDS011;5609;49.466;8.468;2022-11-20T11:14:43;32.70;;;25.13;;
11111;SDS011;5609;49.466;8.468;2022-11-20T11:17:20;35.07;;;25.47;;
11111;SDS011;5609;49.466;8.468;2022-11-20T11:19:58;31.33;;;23.30;;
11111;SDS011;5609;49.466;8.468;2022-11-20T11:22:34;29.30;;;22.47;;
11111;SDS011;5609;49.466;8.468;2022-11-20T11:25:11;26.37;;;20.83;;
11111;SDS011;5609;49.466;8.468;2022-11-20T11:27:51;25.33;;;19.93;;
11111;SDS011;5609;49.466;8.468;2022-11-20T11:30:20;23.17;;;19.57;;
11111;SDS011;5609;49.466;8.468;2022-11-20T11:32:47;19.43;;;17.30;;
11111;SDS011;5609;49.466;8.468;2022-11-20T11:35:22;20.47;;;17.00;;
11111;SDS011;5609;49.466;8.468;2022-11-20T11:37:52;18.70;;;16.60;;
11111;SDS011;5609;49.466;8.468;2022-11-20T11:40:27;17.10;;;13.47;;
11111;SDS011;5609;49.466;8.468;2022-11-20T11:42:57;16.43;;;13.80;;
11111;SDS011;5609;49.466;8.468;2022-11-20T11:45:27;15.93;;;13.17;;
11111;SDS011;5609;49.466;8.468;2022-11-20T11:47:54;16.00;;;13.10;;
11111;SDS011;5609;49.466;8.468;2022-11-20T11:50:23;13.67;;;11.30;;
11111;SDS011;5609;49.466;8.468;2022-11-20T11:52:55;14.97;;;11.50;;
11111;SDS011;5609;49.466;8.468;2022-11-20T11:55:31;12.27;;;10.53;;
11111;SDS011;5609;49.466;8.468;2022-11-20T11:58:09;13.17;;;11.30;;
11111;SDS011;5609;49.466;8.468;2022-11-20T12:00:45;14.33;;;11.70;;
11111;SDS011;5609;49.466;8.468;2022-11-20T12:03:18;13.30;;;11.30;;
11111;SDS011;5609;49.466;8.468;2022-11-20T12:05:49;13.73;;;11.47;;
11111;SDS011;5609;49.466;8.468;2022-11-20T12:08:23;12.20;;;10.60;;
11111;SDS011;5609;49.466;8.468;2022-11-20T12:10:53;14.43;;;10.10;;
11111;SDS011;5609;49.466;8.468;2022-11-20T12:13:32;11.17;;;9.97;;
11111;SDS011;5609;49.466;8.468;2022-11-20T12:16:08;10.73;;;9.70;;
11111;SDS011;5609;49.466;8.468;2022-11-20T12:18:38;10.80;;;8.67;;
11111;SDS011;5609;49.466;8.468;2022-11-20T12:21:10;9.63;;;8.63;;
11111;SDS011;5609;49.466;8.468;2022-11-20T12:23:50;9.80;;;8.73;;
11111;SDS011;5609;49.466;8.468;2022-11-20T12:26:32;8.07;;;7.27;;
11111;SDS011;5609;49.466;8.468;2022-11-20T12:29:11;7.33;;;6.50;;
11111;SDS011;5609;49.466;8.468;2022-11-20T12:31:50;8.83;;;7.43;;
11111;SDS011;5609;49.466;8.468;2022-11-20T12:34:39;6.80;;;5.50;;
11111;SDS011;5609;49.466;8.468;2022-11-20T12:37:19;5.50;;;5.00;;
11111;SDS011;5609;49.466;8.468;2022-11-20T12:39:55;6.33;;;5.20;;
11111;SDS011;5609;49.466;8.468;2022-11-20T12:42:31;5.87;;;4.80;;
11111;SDS011;5609;49.466;8.468;2022-11-20T12:45:29;6.43;;;4.70;;
11111;SDS011;5609;49.466;8.468;2022-11-20T12:51:03;6.93;;;3.57;;
11111;SDS011;5609;49.466;8.468;2022-11-20T12:53:49;6.03;;;3.47;;
11111;SDS011;5609;49.466;8.468;2022-11-20T12:56:31;5.27;;;2.60;;
11111;SDS011;5609;49.466;8.468;2022-11-20T12:59:12;3.20;;;2.00;;
11111;SDS011;5609;49.466;8.468;2022-11-20T13:01:55;3.77;;;1.90;;
11111;SDS011;5609;49.466;8.468;2022-11-20T13:04:34;5.27;;;2.40;;
11111;SDS011;5609;49.466;8.468;2022-11-20T13:07:16;3.17;;;2.30;;
11111;SDS011;5609;49.466;8.468;2022-11-20T13:09:45;3.93;;;2.30;;
11111;SDS011;5609;49.466;8.468;2022-11-20T13:12:15;3.70;;;2.10;;
11111;SDS011;5609;49.466;8.468;2022-11-20T13:14:50;4.37;;;2.00;;
11111;SDS011;5609;49.466;8.468;2022-11-20T13:17:22;4.13;;;2.40;;
11111;SDS011;5609;49.466;8.468;2022-11-20T13:19:55;4.33;;;2.60;;
11111;SDS011;5609;49.466;8.468;2022-11-20T13:22:24;3.87;;;2.67;;
11111;SDS011;5609;49.466;8.468;2022-11-20T13:24:51;5.30;;;2.10;;
11111;SDS011;5609;49.466;8.468;2022-11-20T13:27:20;6.30;;;2.30;;
11111;SDS011;5609;49.466;8.468;2022-11-20T13:29:58;4.43;;;2.40;;
11111;SDS011;5609;49.466;8.468;2022-11-20T13:32:27;5.57;;;2.00;;
11111;SDS011;5609;49.466;8.468;2022-11-20T13:34:57;4.50;;;2.20;;
11111;SDS011;5609;49.466;8.468;2022-11-20T13:37:29;5.70;;;2.40;;
11111;SDS011;5609;49.466;8.468;2022-11-20T13:40:19;6.50;;;2.10;;
11111;SDS011;5609;49.466;8.468;2022-11-20T13:42:54;6.83;;;1.90;;
11111;SDS011;5609;49.466;8.468;2022-11-20T13:45:24;3.90;;;1.97;;
11111;SDS011;5609;49.466;8.468;2022-11-20T13:47:52;4.97;;;1.80;;
11111;SDS011;5609;49.466;8.468;2022-11-20T13:50:21;5.93;;;2.57;;
11111;SDS011;5609;49.466;8.468;2022-11-20T13:53:05;5.20;;;2.60;;
11111;SDS011;5609;49.466;8.468;2022-11-20T13:55:42;3.20;;;1.90;;
11111;SDS011;5609;49.466;8.468;2022-11-20T13:58:24;2.67;;;1.60;;
11111;SDS011;5609;49.466;8.468;2022-11-20T14:01:07;3.37;;;1.73;;
11111;SDS011;5609;49.466;8.468;2022-11-20T14:03:36;3.50;;;1.90;;
11111;SDS011;5609;49.466;8.468;2022-11-20T14:06:05;2.87;;;1.43;;
11111;SDS011;5609;49.466;8.468;2022-11-20T14:08:40;3.63;;;1.60;;
11111;SDS011;5609;49.466;8.468;2022-11-20T14:11:15;4.20;;;1.30;;
11111;SDS011;5609;49.466;8.468;2022-11-20T14:13:55;4.17;;;1.53;;
11111;SDS011;5609;49.466;8.468;2022-11-20T14:16:24;3.27;;;1.30;;
11111;SDS011;5609;49.466;8.468;2022-11-20T14:18:52;2.33;;;1.20;;
11111;SDS011;5609;49.466;8.468;2022-11-20T14:21:27;2.87;;;1.33;;
11111;SDS011;5609;49.466;8.468;2022-11-20T14:24:02;2.43;;;1.47;;
11111;SDS011;5609;49.466;8.468;2022-11-20T14:26:30;3.80;;;1.40;;
11111;SDS011;5609;49.466;8.468;2022-11-20T14:28:58;3.03;;;1.40;;
11111;SDS011;5609;49.466;8.468;2022-11-20T14:31:26;3.27;;;1.60;;
11111;SDS011;5609;49.466;8.468;2022-11-20T14:33:54;2.80;;;1.30;;
11111;SDS011;5609;49.466;8.468;2022-11-20T14:36:23;3.47;;;1.10;;
11111;SDS011;5609;49.466;8.468;2022-11-20T14:38:51;3.00;;;1.33;;
11111;SDS011;5609;49.466;8.468;2022-11-20T14:41:19;2.53;;;1.30;;
11111;SDS011;5609;49.466;8.468;2022-11-20T14:43:51;2.90;;;1.40;;
11111;SDS011;5609;49.466;8.468;2022-11-20T14:46:23;3.33;;;1.23;;
11111;SDS011;5609;49.466;8.468;2022-11-20T14:48:51;4.60;;;1.30;;
11111;SDS011;5609;49.466;8.468;2022-11-20T14:51:23;3.07;;;1.50;;
11111;SDS011;5609;49.466;8.468;2022-11-20T14:53:54;3.40;;;2.40;;
11111;SDS011;5609;49.466;8.468;2022-11-20T14:56:21;4.57;;;2.57;;
11111;SDS011;5609;49.466;8.468;2022-11-20T14:58:55;5.83;;;3.60;;
11111;SDS011;5609;49.466;8.468;2022-11-20T15:01:26;5.40;;;3.10;;
11111;SDS011;5609;49.466;8.468;2022-11-20T15:03:59;4.50;;;2.40;;
11111;SDS011;5609;49.466;8.468;2022-11-20T15:06:27;3.70;;;2.30;;
11111;SDS011;5609;49.466;8.468;2022-11-20T15:08:55;4.87;;;4.37;;
11111;SDS011;5609;49.466;8.468;2022-11-20T15:11:25;5.10;;;3.00;;